sensor_id;sensor_type;location;lat;lon;timestamp;temperature;humidity
55313;DHT22;46892;45.668;11.756;2023-02-15T00:01:50;3.30;79.40
55313;DHT22;46892;45.668;11.756;2023-02-15T00:04:18;3.40;78.60
55313;DHT22;46892;45.668;11.756;2023-02-15T00:06:44;3.40;78.20
55313;DHT22;46892;45.668;11.756;2023-02-15T00:09:11;3.30;78.10
55313;DHT22;46892;45.668;11.756;2023-02-15T00:11:37;3.30;78.70
55313;DHT22;46892;45.668;11.756;2023-02-15T00:14:07;3.30;78.80
55313;DHT22;46892;45.668;11.756;2023-02-15T00:16:33;3.20;79.30
55313;DHT22;46892;45.668;11.756;2023-02-15T00:18:59;3.10;79.30
55313;DHT22;46892;45.668;11.756;2023-02-15T00:21:29;3.20;79.20
55313;DHT22;46892;45.668;11.756;2023-02-15T00:23:57;3.20;78.20
55313;DHT22;46892;45.668;11.756;2023-02-15T00:26:23;3.20;78.80
55313;DHT22;46892;45.668;11.756;2023-02-15T00:28:49;3.00;78.80
55313;DHT22;46892;45.668;11.756;2023-02-15T00:31:15;3.10;78.70
55313;DHT22;46892;45.668;11.756;2023-02-15T00:33:40;3.10;78.60
55313;DHT22;46892;45.668;11.756;2023-02-15T00:36:08;3.00;79.30
55313;DHT22;46892;45.668;11.756;2023-02-15T00:38:35;3.00;79.60
55313;DHT22;46892;45.668;11.756;2023-02-15T00:41:03;3.00;80.00
55313;DHT22;46892;45.668;11.756;2023-02-15T00:43:30;3.00;79.60
55313;DHT22;46892;45.668;11.756;2023-02-15T00:45:56;3.00;78.80
55313;DHT22;46892;45.668;11.756;2023-02-15T00:48:22;2.90;78.20
55313;DHT22;46892;45.668;11.756;2023-02-15T00:50:55;2.90;77.60
55313;DHT22;46892;45.668;11.756;2023-02-15T00:53:22;2.90;76.90
55313;DHT22;46892;45.668;11.756;2023-02-15T00:55:48;2.90;77.10
55313;DHT22;46892;45.668;11.756;2023-02-15T00:58:15;2.80;77.60
55313;DHT22;46892;45.668;11.756;2023-02-15T01:00:43;2.80;78.80
55313;DHT22;46892;45.668;11.756;2023-02-15T01:08:48;2.50;80.20
55313;DHT22;46892;45.668;11.756;2023-02-15T01:11:16;2.50;80.40
55313;DHT22;46892;45.668;11.756;2023-02-15T01:13:57;2.50;80.60
55313;DHT22;46892;45.668;11.756;2023-02-15T01:16:25;2.70;80.30
55313;DHT22;46892;45.668;11.756;2023-02-15T01:18:51;2.80;79.70
55313;DHT22;46892;45.668;11.756;2023-02-15T01:21:19;2.90;79.70
55313;DHT22;46892;45.668;11.756;2023-02-15T01:23:46;3.00;79.70
55313;DHT22;46892;45.668;11.756;2023-02-15T01:26:12;3.00;79.70
55313;DHT22;46892;45.668;11.756;2023-02-15T01:28:38;3.00;79.50
55313;DHT22;46892;45.668;11.756;2023-02-15T01:31:22;2.90;78.70
55313;DHT22;46892;45.668;11.756;2023-02-15T01:33:48;2.80;78.30
55313;DHT22;46892;45.668;11.756;2023-02-15T01:36:14;2.70;77.90
55313;DHT22;46892;45.668;11.756;2023-02-15T01:38:40;2.60;77.50
55313;DHT22;46892;45.668;11.756;2023-02-15T01:41:07;2.60;78.00
55313;DHT22;46892;45.668;11.756;2023-02-15T01:43:58;2.60;77.40
55313;DHT22;46892;45.668;11.756;2023-02-15T01:46:37;2.50;77.40
55313;DHT22;46892;45.668;11.756;2023-02-15T01:49:11;2.40;77.70
55313;DHT22;46892;45.668;11.756;2023-02-15T01:51:40;2.30;78.30
55313;DHT22;46892;45.668;11.756;2023-02-15T01:54:17;2.30;78.80
55313;DHT22;46892;45.668;11.756;2023-02-15T01:56:44;2.40;78.80
55313;DHT22;46892;45.668;11.756;2023-02-15T01:59:16;2.40;78.30
55313;DHT22;46892;45.668;11.756;2023-02-15T02:01:42;2.40;78.50
55313;DHT22;46892;45.668;11.756;2023-02-15T02:04:33;2.50;78.80
55313;DHT22;46892;45.668;11.756;2023-02-15T02:07:00;2.40;78.90
55313;DHT22;46892;45.668;11.756;2023-02-15T02:09:28;2.40;79.20
55313;DHT22;46892;45.668;11.756;2023-02-15T02:11:54;2.40;79.30
55313;DHT22;46892;45.668;11.756;2023-02-15T02:14:20;2.50;78.50
55313;DHT22;46892;45.668;11.756;2023-02-15T02:20:04;2.60;77.10
55313;DHT22;46892;45.668;11.756;2023-02-15T02:25:39;2.40;78.10
55313;DHT22;46892;45.668;11.756;2023-02-15T02:36:42;2.20;79.00
55313;DHT22;46892;45.668;11.756;2023-02-15T02:44:43;2.00;77.20
55313;DHT22;46892;45.668;11.756;2023-02-15T02:47:33;1.90;78.20
55313;DHT22;46892;45.668;11.756;2023-02-15T02:50:07;1.90;78.50
55313;DHT22;46892;45.668;11.756;2023-02-15T02:52:48;1.90;78.20
55313;DHT22;46892;45.668;11.756;2023-02-15T02:55:19;1.90;78.30
55313;DHT22;46892;45.668;11.756;2023-02-15T03:00:37;1.90;78.40
55313;DHT22;46892;45.668;11.756;2023-02-15T03:03:13;1.80;78.40
55313;DHT22;46892;45.668;11.756;2023-02-15T03:05:43;1.80;78.70
55313;DHT22;46892;45.668;11.756;2023-02-15T03:08:12;1.80;79.00
55313;DHT22;46892;45.668;11.756;2023-02-15T03:10:40;1.90;79.20
55313;DHT22;46892;45.668;11.756;2023-02-15T03:13:06;2.00;79.30
55313;DHT22;46892;45.668;11.756;2023-02-15T03:15:38;2.10;79.20
55313;DHT22;46892;45.668;11.756;2023-02-15T03:18:27;2.00;79.10
55313;DHT22;46892;45.668;11.756;2023-02-15T03:20:55;2.00;78.90
55313;DHT22;46892;45.668;11.756;2023-02-15T03:23:25;2.00;78.40
55313;DHT22;46892;45.668;11.756;2023-02-15T03:25:58;2.00;78.30
55313;DHT22;46892;45.668;11.756;2023-02-15T03:28:29;2.00;78.50
55313;DHT22;46892;45.668;11.756;2023-02-15T03:30:59;2.00;78.30
55313;DHT22;46892;45.668;11.756;2023-02-15T03:33:26;1.80;77.60
55313;DHT22;46892;45.668;11.756;2023-02-15T03:36:18;1.70;77.80
55313;DHT22;46892;45.668;11.756;2023-02-15T03:39:10;1.60;78.30
55313;DHT22;46892;45.668;11.756;2023-02-15T03:42:32;1.50;78.80
55313;DHT22;46892;45.668;11.756;2023-02-15T03:45:03;1.40;79.00
55313;DHT22;46892;45.668;11.756;2023-02-15T03:47:34;1.30;79.30
55313;DHT22;46892;45.668;11.756;2023-02-15T03:50:19;1.30;79.30
55313;DHT22;46892;45.668;11.756;2023-02-15T03:53:08;1.20;79.50
55313;DHT22;46892;45.668;11.756;2023-02-15T03:55:35;1.30;80.00
55313;DHT22;46892;45.668;11.756;2023-02-15T03:58:01;1.30;80.00
55313;DHT22;46892;45.668;11.756;2023-02-15T04:00:57;1.30;80.00
55313;DHT22;46892;45.668;11.756;2023-02-15T04:04:07;1.10;79.90
55313;DHT22;46892;45.668;11.756;2023-02-15T04:06:37;1.20;80.40
55313;DHT22;46892;45.668;11.756;2023-02-15T04:09:03;1.30;80.40
55313;DHT22;46892;45.668;11.756;2023-02-15T04:11:46;1.40;80.10
55313;DHT22;46892;45.668;11.756;2023-02-15T04:14:12;1.40;79.40
55313;DHT22;46892;45.668;11.756;2023-02-15T04:16:56;1.40;79.30
55313;DHT22;46892;45.668;11.756;2023-02-15T04:19:22;1.40;79.40
55313;DHT22;46892;45.668;11.756;2023-02-15T04:22:06;1.60;79.30
55313;DHT22;46892;45.668;11.756;2023-02-15T04:24:50;1.70;78.10
55313;DHT22;46892;45.668;11.756;2023-02-15T04:27:34;1.70;78.40
55313;DHT22;46892;45.668;11.756;2023-02-15T04:29:59;1.60;78.60
55313;DHT22;46892;45.668;11.756;2023-02-15T04:32:25;1.60;78.70
55313;DHT22;46892;45.668;11.756;2023-02-15T04:34:51;1.50;78.70
55313;DHT22;46892;45.668;11.756;2023-02-15T04:37:16;1.50;78.30
55313;DHT22;46892;45.668;11.756;2023-02-15T04:39:42;1.50;77.90
55313;DHT22;46892;45.668;11.756;2023-02-15T04:42:07;1.50;78.40
55313;DHT22;46892;45.668;11.756;2023-02-15T04:44:33;1.50;78.80
55313;DHT22;46892;45.668;11.756;2023-02-15T04:46:59;1.50;78.40
55313;DHT22;46892;45.668;11.756;2023-02-15T04:49:24;1.60;78.60
55313;DHT22;46892;45.668;11.756;2023-02-15T04:51:50;1.60;78.60
55313;DHT22;46892;45.668;11.756;2023-02-15T04:54:16;1.60;78.80
55313;DHT22;46892;45.668;11.756;2023-02-15T04:56:42;1.70;78.30
55313;DHT22;46892;45.668;11.756;2023-02-15T04:59:10;1.50;78.20
55313;DHT22;46892;45.668;11.756;2023-02-15T05:01:36;1.40;78.20
55313;DHT22;46892;45.668;11.756;2023-02-15T05:04:02;1.30;78.10
55313;DHT22;46892;45.668;11.756;2023-02-15T05:06:28;1.30;78.40
55313;DHT22;46892;45.668;11.756;2023-02-15T05:08:53;1.20;78.10
55313;DHT22;46892;45.668;11.756;2023-02-15T05:11:19;1.10;78.10
55313;DHT22;46892;45.668;11.756;2023-02-15T05:13:45;1.00;79.30
55313;DHT22;46892;45.668;11.756;2023-02-15T05:16:10;0.90;79.40
55313;DHT22;46892;45.668;11.756;2023-02-15T05:18:36;1.00;79.20
55313;DHT22;46892;45.668;11.756;2023-02-15T05:21:02;1.00;79.60
55313;DHT22;46892;45.668;11.756;2023-02-15T05:23:28;1.00;79.30
55313;DHT22;46892;45.668;11.756;2023-02-15T05:25:53;1.10;78.90
55313;DHT22;46892;45.668;11.756;2023-02-15T05:28:38;1.10;79.00
55313;DHT22;46892;45.668;11.756;2023-02-15T05:33:33;1.30;78.60
55313;DHT22;46892;45.668;11.756;2023-02-15T05:35:59;1.30;78.70
55313;DHT22;46892;45.668;11.756;2023-02-15T05:38:25;1.30;78.60
55313;DHT22;46892;45.668;11.756;2023-02-15T05:40:51;1.30;77.40
55313;DHT22;46892;45.668;11.756;2023-02-15T05:43:17;1.40;77.30
55313;DHT22;46892;45.668;11.756;2023-02-15T05:45:47;1.30;77.00
55313;DHT22;46892;45.668;11.756;2023-02-15T05:48:13;1.10;77.60
55313;DHT22;46892;45.668;11.756;2023-02-15T05:50:39;1.00;78.20
55313;DHT22;46892;45.668;11.756;2023-02-15T05:53:04;1.10;78.90
55313;DHT22;46892;45.668;11.756;2023-02-15T05:55:30;0.90;78.60
55313;DHT22;46892;45.668;11.756;2023-02-15T05:57:56;0.80;79.10
55313;DHT22;46892;45.668;11.756;2023-02-15T06:00:21;0.80;79.10
55313;DHT22;46892;45.668;11.756;2023-02-15T06:02:47;0.80;78.20
55313;DHT22;46892;45.668;11.756;2023-02-15T06:05:13;0.80;78.90
55313;DHT22;46892;45.668;11.756;2023-02-15T06:07:38;0.80;78.80
55313;DHT22;46892;45.668;11.756;2023-02-15T06:10:04;0.80;78.60
55313;DHT22;46892;45.668;11.756;2023-02-15T06:12:30;0.80;78.60
55313;DHT22;46892;45.668;11.756;2023-02-15T06:14:56;0.80;78.10
55313;DHT22;46892;45.668;11.756;2023-02-15T06:17:22;0.70;78.30
55313;DHT22;46892;45.668;11.756;2023-02-15T06:19:47;0.70;78.40
55313;DHT22;46892;45.668;11.756;2023-02-15T06:22:13;0.70;78.60
55313;DHT22;46892;45.668;11.756;2023-02-15T06:24:39;0.70;79.10
55313;DHT22;46892;45.668;11.756;2023-02-15T06:27:08;0.70;79.60
55313;DHT22;46892;45.668;11.756;2023-02-15T06:29:34;0.70;79.50
55313;DHT22;46892;45.668;11.756;2023-02-15T06:32:00;0.80;79.70
55313;DHT22;46892;45.668;11.756;2023-02-15T06:34:25;1.00;79.70
55313;DHT22;46892;45.668;11.756;2023-02-15T06:36:51;1.30;79.30
55313;DHT22;46892;45.668;11.756;2023-02-15T06:39:16;1.50;78.40
55313;DHT22;46892;45.668;11.756;2023-02-15T06:41:42;1.70;77.70
55313;DHT22;46892;45.668;11.756;2023-02-15T06:44:08;1.80;77.10
55313;DHT22;46892;45.668;11.756;2023-02-15T06:46:34;1.90;76.50
55313;DHT22;46892;45.668;11.756;2023-02-15T06:48:59;2.10;76.10
55313;DHT22;46892;45.668;11.756;2023-02-15T06:51:25;2.30;75.20
55313;DHT22;46892;45.668;11.756;2023-02-15T06:53:51;2.30;74.20
55313;DHT22;46892;45.668;11.756;2023-02-15T06:56:16;2.30;74.90
55313;DHT22;46892;45.668;11.756;2023-02-15T06:58:42;2.40;75.10
55313;DHT22;46892;45.668;11.756;2023-02-15T07:01:09;2.50;74.90
55313;DHT22;46892;45.668;11.756;2023-02-15T07:03:35;2.60;74.90
55313;DHT22;46892;45.668;11.756;2023-02-15T07:06:02;2.80;75.10
55313;DHT22;46892;45.668;11.756;2023-02-15T07:08:31;3.00;74.90
55313;DHT22;46892;45.668;11.756;2023-02-15T07:10:56;3.20;74.60
55313;DHT22;46892;45.668;11.756;2023-02-15T07:13:46;3.40;73.80
55313;DHT22;46892;45.668;11.756;2023-02-15T07:16:12;3.70;73.00
55313;DHT22;46892;45.668;11.756;2023-02-15T07:18:38;3.90;72.40
55313;DHT22;46892;45.668;11.756;2023-02-15T07:21:05;4.20;71.80
55313;DHT22;46892;45.668;11.756;2023-02-15T07:23:36;4.20;71.70
55313;DHT22;46892;45.668;11.756;2023-02-15T07:26:03;4.40;71.70
55313;DHT22;46892;45.668;11.756;2023-02-15T07:28:29;4.60;71.70
55313;DHT22;46892;45.668;11.756;2023-02-15T07:30:55;4.80;71.80
55313;DHT22;46892;45.668;11.756;2023-02-15T07:33:22;4.90;71.40
55313;DHT22;46892;45.668;11.756;2023-02-15T07:35:56;5.10;71.50
55313;DHT22;46892;45.668;11.756;2023-02-15T07:38:25;5.40;72.10
55313;DHT22;46892;45.668;11.756;2023-02-15T07:40:51;5.80;73.30
55313;DHT22;46892;45.668;11.756;2023-02-15T07:43:17;6.20;73.80
55313;DHT22;46892;45.668;11.756;2023-02-15T07:45:43;6.50;73.30
55313;DHT22;46892;45.668;11.756;2023-02-15T07:48:09;6.90;71.70
55313;DHT22;46892;45.668;11.756;2023-02-15T07:50:35;7.20;71.40
55313;DHT22;46892;45.668;11.756;2023-02-15T07:53:03;7.50;70.50
55313;DHT22;46892;45.668;11.756;2023-02-15T07:55:30;7.90;71.00
55313;DHT22;46892;45.668;11.756;2023-02-15T07:57:55;8.00;69.80
55313;DHT22;46892;45.668;11.756;2023-02-15T08:00:22;8.30;71.70
55313;DHT22;46892;45.668;11.756;2023-02-15T08:02:56;8.70;70.70
55313;DHT22;46892;45.668;11.756;2023-02-15T08:05:41;9.10;69.90
55313;DHT22;46892;45.668;11.756;2023-02-15T08:08:08;9.30;68.40
55313;DHT22;46892;45.668;11.756;2023-02-15T08:16:33;9.50;65.30
55313;DHT22;46892;45.668;11.756;2023-02-15T08:19:01;9.60;66.10
55313;DHT22;46892;45.668;11.756;2023-02-15T08:21:28;9.60;66.60
55313;DHT22;46892;45.668;11.756;2023-02-15T08:26:30;10.00;66.30
55313;DHT22;46892;45.668;11.756;2023-02-15T08:28:57;10.20;64.20
55313;DHT22;46892;45.668;11.756;2023-02-15T08:31:23;10.30;62.50
55313;DHT22;46892;45.668;11.756;2023-02-15T08:33:50;10.40;61.40
55313;DHT22;46892;45.668;11.756;2023-02-15T08:36:18;10.50;60.60
55313;DHT22;46892;45.668;11.756;2023-02-15T08:38:44;10.60;57.90
55313;DHT22;46892;45.668;11.756;2023-02-15T08:41:19;10.60;59.60
55313;DHT22;46892;45.668;11.756;2023-02-15T08:43:48;10.80;60.10
55313;DHT22;46892;45.668;11.756;2023-02-15T08:46:15;11.10;58.30
55313;DHT22;46892;45.668;11.756;2023-02-15T08:48:42;11.30;60.20
55313;DHT22;46892;45.668;11.756;2023-02-15T08:51:15;11.30;55.80
55313;DHT22;46892;45.668;11.756;2023-02-15T08:53:47;11.30;57.70
55313;DHT22;46892;45.668;11.756;2023-02-15T08:56:18;11.20;59.00
55313;DHT22;46892;45.668;11.756;2023-02-15T08:58:44;11.20;59.60
55313;DHT22;46892;45.668;11.756;2023-02-15T09:01:30;11.10;57.20
55313;DHT22;46892;45.668;11.756;2023-02-15T09:03:58;11.10;59.40
55313;DHT22;46892;45.668;11.756;2023-02-15T09:06:24;11.20;57.60
55313;DHT22;46892;45.668;11.756;2023-02-15T09:08:50;11.30;56.50
55313;DHT22;46892;45.668;11.756;2023-02-15T09:11:23;11.40;58.00
55313;DHT22;46892;45.668;11.756;2023-02-15T09:14:03;11.40;58.20
55313;DHT22;46892;45.668;11.756;2023-02-15T09:16:32;11.50;58.60
55313;DHT22;46892;45.668;11.756;2023-02-15T09:18:58;11.40;58.70
55313;DHT22;46892;45.668;11.756;2023-02-15T09:21:26;11.40;59.00
55313;DHT22;46892;45.668;11.756;2023-02-15T09:23:56;11.40;58.50
55313;DHT22;46892;45.668;11.756;2023-02-15T09:26:23;11.50;59.10
55313;DHT22;46892;45.668;11.756;2023-02-15T09:28:52;11.60;59.20
55313;DHT22;46892;45.668;11.756;2023-02-15T09:31:22;11.70;58.20
55313;DHT22;46892;45.668;11.756;2023-02-15T09:33:49;11.80;57.60
55313;DHT22;46892;45.668;11.756;2023-02-15T09:36:21;11.80;56.80
55313;DHT22;46892;45.668;11.756;2023-02-15T09:38:48;11.70;58.80
55313;DHT22;46892;45.668;11.756;2023-02-15T09:41:38;11.70;58.70
55313;DHT22;46892;45.668;11.756;2023-02-15T09:47:32;12.00;57.70
55313;DHT22;46892;45.668;11.756;2023-02-15T09:50:19;11.90;56.80
55313;DHT22;46892;45.668;11.756;2023-02-15T10:09:55;12.00;57.30
55313;DHT22;46892;45.668;11.756;2023-02-15T10:23:47;12.20;59.80
55313;DHT22;46892;45.668;11.756;2023-02-15T10:26:26;12.30;59.00
55313;DHT22;46892;45.668;11.756;2023-02-15T10:29:12;12.40;58.10
55313;DHT22;46892;45.668;11.756;2023-02-15T10:32:26;12.40;58.90
55313;DHT22;46892;45.668;11.756;2023-02-15T10:35:04;12.50;57.60
55313;DHT22;46892;45.668;11.756;2023-02-15T10:37:37;12.50;56.00
55313;DHT22;46892;45.668;11.756;2023-02-15T10:40:19;12.40;52.70
55313;DHT22;46892;45.668;11.756;2023-02-15T11:07:40;12.50;55.20
55313;DHT22;46892;45.668;11.756;2023-02-15T11:12:41;12.70;53.40
55313;DHT22;46892;45.668;11.756;2023-02-15T11:18:21;12.90;51.70
55313;DHT22;46892;45.668;11.756;2023-02-15T11:23:30;13.10;52.10
55313;DHT22;46892;45.668;11.756;2023-02-15T11:26:00;13.30;50.20
55313;DHT22;46892;45.668;11.756;2023-02-15T11:31:27;13.40;49.20
55313;DHT22;46892;45.668;11.756;2023-02-15T11:33:59;13.30;49.90
55313;DHT22;46892;45.668;11.756;2023-02-15T11:36:37;13.30;50.90
55313;DHT22;46892;45.668;11.756;2023-02-15T11:39:12;13.30;50.90
55313;DHT22;46892;45.668;11.756;2023-02-15T11:41:51;13.30;52.10
55313;DHT22;46892;45.668;11.756;2023-02-15T11:44:30;13.40;53.00
55313;DHT22;46892;45.668;11.756;2023-02-15T11:46:58;13.50;51.80
55313;DHT22;46892;45.668;11.756;2023-02-15T11:49:33;13.60;50.20
55313;DHT22;46892;45.668;11.756;2023-02-15T11:52:06;13.70;51.50
55313;DHT22;46892;45.668;11.756;2023-02-15T11:54:34;13.80;52.10
55313;DHT22;46892;45.668;11.756;2023-02-15T11:59:37;13.90;51.50
55313;DHT22;46892;45.668;11.756;2023-02-15T12:02:20;14.00;51.20
55313;DHT22;46892;45.668;11.756;2023-02-15T12:04:54;14.00;52.20
55313;DHT22;46892;45.668;11.756;2023-02-15T12:07:46;14.00;50.40
55313;DHT22;46892;45.668;11.756;2023-02-15T12:10:24;14.00;52.40
55313;DHT22;46892;45.668;11.756;2023-02-15T12:13:18;14.20;50.90
55313;DHT22;46892;45.668;11.756;2023-02-15T12:15:47;14.20;50.10
55313;DHT22;46892;45.668;11.756;2023-02-15T12:18:38;14.20;48.80
55313;DHT22;46892;45.668;11.756;2023-02-15T12:21:11;14.20;49.00
55313;DHT22;46892;45.668;11.756;2023-02-15T12:23:47;14.20;50.90
55313;DHT22;46892;45.668;11.756;2023-02-15T12:26:14;14.30;52.20
55313;DHT22;46892;45.668;11.756;2023-02-15T12:28:48;14.30;50.50
55313;DHT22;46892;45.668;11.756;2023-02-15T12:31:38;14.30;49.30
55313;DHT22;46892;45.668;11.756;2023-02-15T12:36:45;14.60;51.20
55313;DHT22;46892;45.668;11.756;2023-02-15T12:39:38;14.60;48.60
55313;DHT22;46892;45.668;11.756;2023-02-15T12:42:16;14.70;48.00
55313;DHT22;46892;45.668;11.756;2023-02-15T12:44:55;14.80;47.80
55313;DHT22;46892;45.668;11.756;2023-02-15T12:47:21;14.80;50.10
55313;DHT22;46892;45.668;11.756;2023-02-15T12:50:40;14.80;49.30
55313;DHT22;46892;45.668;11.756;2023-02-15T12:55:36;14.90;48.20
55313;DHT22;46892;45.668;11.756;2023-02-15T12:58:19;14.80;48.60
55313;DHT22;46892;45.668;11.756;2023-02-15T13:00:46;14.90;47.70
55313;DHT22;46892;45.668;11.756;2023-02-15T13:03:22;14.90;49.90
55313;DHT22;46892;45.668;11.756;2023-02-15T13:05:54;14.90;50.50
55313;DHT22;46892;45.668;11.756;2023-02-15T13:08:34;14.90;48.70
55313;DHT22;46892;45.668;11.756;2023-02-15T13:11:06;14.80;48.80
55313;DHT22;46892;45.668;11.756;2023-02-15T13:13:35;14.90;49.70
55313;DHT22;46892;45.668;11.756;2023-02-15T13:16:05;14.90;50.00
55313;DHT22;46892;45.668;11.756;2023-02-15T13:18:36;14.90;48.80
55313;DHT22;46892;45.668;11.756;2023-02-15T13:21:14;15.00;49.30
55313;DHT22;46892;45.668;11.756;2023-02-15T13:23:46;15.00;49.10
55313;DHT22;46892;45.668;11.756;2023-02-15T13:26:19;15.10;49.00
55313;DHT22;46892;45.668;11.756;2023-02-15T13:28:51;15.20;48.30
55313;DHT22;46892;45.668;11.756;2023-02-15T13:31:23;15.20;47.00
55313;DHT22;46892;45.668;11.756;2023-02-15T13:34:16;15.20;48.50
55313;DHT22;46892;45.668;11.756;2023-02-15T13:37:15;15.20;48.30
55313;DHT22;46892;45.668;11.756;2023-02-15T13:39:54;15.20;47.50
55313;DHT22;46892;45.668;11.756;2023-02-15T13:42:30;15.20;48.00
55313;DHT22;46892;45.668;11.756;2023-02-15T13:45:59;15.20;47.90
55313;DHT22;46892;45.668;11.756;2023-02-15T14:01:28;15.30;49.50
55313;DHT22;46892;45.668;11.756;2023-02-15T14:07:30;15.20;47.00
55313;DHT22;46892;45.668;11.756;2023-02-15T14:13:02;15.20;49.30
55313;DHT22;46892;45.668;11.756;2023-02-15T14:15:32;15.20;48.80
55313;DHT22;46892;45.668;11.756;2023-02-15T14:32:05;15.10;49.60
55313;DHT22;46892;45.668;11.756;2023-02-15T14:34:48;15.10;49.70
55313;DHT22;46892;45.668;11.756;2023-02-15T14:37:19;15.10;48.50
55313;DHT22;46892;45.668;11.756;2023-02-15T14:39:55;15.10;47.60
55313;DHT22;46892;45.668;11.756;2023-02-15T14:42:51;15.10;48.20
55313;DHT22;46892;45.668;11.756;2023-02-15T14:45:29;15.10;48.80
55313;DHT22;46892;45.668;11.756;2023-02-15T14:50:52;15.20;48.20
55313;DHT22;46892;45.668;11.756;2023-02-15T14:56:19;15.20;49.20
55313;DHT22;46892;45.668;11.756;2023-02-15T15:01:32;15.00;48.60
55313;DHT22;46892;45.668;11.756;2023-02-15T15:04:14;14.90;49.30
55313;DHT22;46892;45.668;11.756;2023-02-15T15:07:07;14.90;49.50
55313;DHT22;46892;45.668;11.756;2023-02-15T15:09:36;14.90;48.50
55313;DHT22;46892;45.668;11.756;2023-02-15T15:14:47;14.90;48.90
55313;DHT22;46892;45.668;11.756;2023-02-15T15:22:29;15.00;48.40
55313;DHT22;46892;45.668;11.756;2023-02-15T15:25:03;15.00;48.60
55313;DHT22;46892;45.668;11.756;2023-02-15T15:27:51;15.00;49.90
55313;DHT22;46892;45.668;11.756;2023-02-15T15:48:38;14.10;52.00
55313;DHT22;46892;45.668;11.756;2023-02-15T15:51:20;14.10;52.30
55313;DHT22;46892;45.668;11.756;2023-02-15T15:53:48;14.00;52.70
55313;DHT22;46892;45.668;11.756;2023-02-15T15:56:18;13.90;52.80
55313;DHT22;46892;45.668;11.756;2023-02-15T15:58:57;13.90;52.70
55313;DHT22;46892;45.668;11.756;2023-02-15T16:01:27;13.80;52.70
55313;DHT22;46892;45.668;11.756;2023-02-15T16:03:54;13.80;53.20
55313;DHT22;46892;45.668;11.756;2023-02-15T16:08:55;13.50;54.00
55313;DHT22;46892;45.668;11.756;2023-02-15T16:11:24;13.40;54.00
55313;DHT22;46892;45.668;11.756;2023-02-15T16:13:51;13.30;54.10
55313;DHT22;46892;45.668;11.756;2023-02-15T16:16:22;13.30;55.10
55313;DHT22;46892;45.668;11.756;2023-02-15T16:18:49;13.20;55.20
55313;DHT22;46892;45.668;11.756;2023-02-15T16:21:22;13.20;54.70
55313;DHT22;46892;45.668;11.756;2023-02-15T16:24:22;13.10;55.20
55313;DHT22;46892;45.668;11.756;2023-02-15T16:29:29;13.10;55.40
55313;DHT22;46892;45.668;11.756;2023-02-15T16:34:26;13.00;54.70
55313;DHT22;46892;45.668;11.756;2023-02-15T16:37:21;12.90;54.90
55313;DHT22;46892;45.668;11.756;2023-02-15T16:39:49;12.80;54.90
55313;DHT22;46892;45.668;11.756;2023-02-15T16:42:16;12.70;55.50
55313;DHT22;46892;45.668;11.756;2023-02-15T16:44:43;12.60;56.00
55313;DHT22;46892;45.668;11.756;2023-02-15T16:47:16;12.30;56.50
55313;DHT22;46892;45.668;11.756;2023-02-15T16:49:48;12.10;57.20
55313;DHT22;46892;45.668;11.756;2023-02-15T16:52:22;12.00;57.50
55313;DHT22;46892;45.668;11.756;2023-02-15T16:55:02;11.90;57.90
55313;DHT22;46892;45.668;11.756;2023-02-15T16:57:32;12.00;57.40
55313;DHT22;46892;45.668;11.756;2023-02-15T17:00:34;12.00;58.10
55313;DHT22;46892;45.668;11.756;2023-02-15T17:05:40;11.50;59.50
55313;DHT22;46892;45.668;11.756;2023-02-15T17:10:46;11.20;60.20
55313;DHT22;46892;45.668;11.756;2023-02-15T17:13:26;11.10;60.60
55313;DHT22;46892;45.668;11.756;2023-02-15T17:18:27;10.80;61.60
55313;DHT22;46892;45.668;11.756;2023-02-15T17:20:55;10.80;62.00
55313;DHT22;46892;45.668;11.756;2023-02-15T17:23:41;10.70;62.10
55313;DHT22;46892;45.668;11.756;2023-02-15T17:26:16;10.60;62.20
55313;DHT22;46892;45.668;11.756;2023-02-15T17:28:54;10.60;62.40
55313;DHT22;46892;45.668;11.756;2023-02-15T17:31:24;10.50;62.50
55313;DHT22;46892;45.668;11.756;2023-02-15T17:33:53;10.50;62.50
55313;DHT22;46892;45.668;11.756;2023-02-15T17:36:22;10.50;62.20
55313;DHT22;46892;45.668;11.756;2023-02-15T17:41:31;10.50;62.00
55313;DHT22;46892;45.668;11.756;2023-02-15T17:43:57;10.50;62.10
55313;DHT22;46892;45.668;11.756;2023-02-15T17:46:24;10.50;62.10
55313;DHT22;46892;45.668;11.756;2023-02-15T17:48:51;10.50;61.70
55313;DHT22;46892;45.668;11.756;2023-02-15T17:51:18;10.60;61.40
55313;DHT22;46892;45.668;11.756;2023-02-15T17:53:45;10.50;61.70
55313;DHT22;46892;45.668;11.756;2023-02-15T17:56:29;10.40;62.00
55313;DHT22;46892;45.668;11.756;2023-02-15T17:58:55;10.20;62.80
55313;DHT22;46892;45.668;11.756;2023-02-15T18:01:21;10.00;63.40
55313;DHT22;46892;45.668;11.756;2023-02-15T18:04:08;9.70;64.10
55313;DHT22;46892;45.668;11.756;2023-02-15T18:06:55;9.60;64.60
55313;DHT22;46892;45.668;11.756;2023-02-15T18:09:39;9.40;64.90
55313;DHT22;46892;45.668;11.756;2023-02-15T18:12:29;9.40;65.60
55313;DHT22;46892;45.668;11.756;2023-02-15T18:14:56;9.20;65.90
55313;DHT22;46892;45.668;11.756;2023-02-15T18:17:43;9.10;66.20
55313;DHT22;46892;45.668;11.756;2023-02-15T18:20:29;9.10;65.70
55313;DHT22;46892;45.668;11.756;2023-02-15T18:22:56;9.00;65.90
55313;DHT22;46892;45.668;11.756;2023-02-15T18:25:22;8.90;66.20
55313;DHT22;46892;45.668;11.756;2023-02-15T18:27:50;8.80;66.30
55313;DHT22;46892;45.668;11.756;2023-02-15T18:30:22;8.70;66.70
55313;DHT22;46892;45.668;11.756;2023-02-15T18:32:50;8.60;67.00
55313;DHT22;46892;45.668;11.756;2023-02-15T18:35:19;8.50;67.40
55313;DHT22;46892;45.668;11.756;2023-02-15T18:37:45;8.50;67.50
55313;DHT22;46892;45.668;11.756;2023-02-15T18:40:20;8.50;67.70
55313;DHT22;46892;45.668;11.756;2023-02-15T18:42:46;8.40;68.00
55313;DHT22;46892;45.668;11.756;2023-02-15T18:45:24;8.30;68.10
55313;DHT22;46892;45.668;11.756;2023-02-15T18:47:51;8.30;68.60
55313;DHT22;46892;45.668;11.756;2023-02-15T18:50:20;8.30;68.10
55313;DHT22;46892;45.668;11.756;2023-02-15T18:52:47;8.30;68.30
55313;DHT22;46892;45.668;11.756;2023-02-15T18:55:23;8.20;68.60
55313;DHT22;46892;45.668;11.756;2023-02-15T18:57:51;8.00;68.90
55313;DHT22;46892;45.668;11.756;2023-02-15T19:00:20;8.00;69.20
55313;DHT22;46892;45.668;11.756;2023-02-15T19:02:46;7.90;69.50
55313;DHT22;46892;45.668;11.756;2023-02-15T19:05:12;7.90;69.80
55313;DHT22;46892;45.668;11.756;2023-02-15T19:07:38;7.80;69.90
55313;DHT22;46892;45.668;11.756;2023-02-15T19:10:06;7.80;69.60
55313;DHT22;46892;45.668;11.756;2023-02-15T19:12:32;7.50;70.20
55313;DHT22;46892;45.668;11.756;2023-02-15T19:14:58;7.30;71.60
55313;DHT22;46892;45.668;11.756;2023-02-15T19:17:24;7.40;71.80